createdAt,value
2018-06-30T00:00:08.289Z,26.10
2018-06-30T00:02:37.470Z,26.25
2018-06-30T00:05:06.161Z,26.07
2018-06-30T00:07:35.072Z,26.50
2018-06-30T00:10:04.149Z,25.20
2018-06-30T00:12:33.024Z,24.70
2018-06-30T00:15:01.765Z,24.43
2018-06-30T00:17:30.708Z,24.87
2018-06-30T00:19:59.452Z,24.07
2018-06-30T00:22:28.177Z,24.45
2018-06-30T00:24:58.692Z,23.45
2018-06-30T00:27:30.628Z,23.80
2018-06-30T00:30:01.554Z,24.90
2018-06-30T00:32:31.020Z,26.95
2018-06-30T00:34:59.790Z,26.50
2018-06-30T00:37:28.445Z,27.55
2018-06-30T00:39:57.248Z,27.60
2018-06-30T00:42:26.054Z,27.93
2018-06-30T00:44:54.739Z,27.73
2018-06-30T00:47:23.498Z,27.67
2018-06-30T00:49:52.200Z,26.62
2018-06-30T00:52:22.141Z,25.90
2018-06-30T00:54:50.934Z,28.17
2018-06-30T00:57:19.812Z,27.77
2018-06-30T00:59:48.570Z,27.42
2018-06-30T01:02:17.281Z,27.15
2018-06-30T01:04:46.031Z,28.20
2018-06-30T01:07:14.724Z,28.02
2018-06-30T01:09:43.630Z,28.50
2018-06-30T01:12:12.329Z,27.90
2018-06-30T01:14:41.007Z,27.67
2018-06-30T01:17:09.721Z,28.07
2018-06-30T01:19:38.830Z,27.98
2018-06-30T01:22:07.640Z,29.30
2018-06-30T01:24:37.379Z,29.60
2018-06-30T01:27:06.293Z,31.15
2018-06-30T01:29:35.272Z,32.07
2018-06-30T01:32:04.023Z,33.55
2018-06-30T01:34:32.815Z,33.60
2018-06-30T01:37:01.610Z,34.80
2018-06-30T01:39:30.318Z,34.53
2018-06-30T01:41:59.114Z,35.90
2018-06-30T01:44:27.883Z,34.95
2018-06-30T01:46:56.776Z,36.10
2018-06-30T01:49:25.491Z,34.50
2018-06-30T01:51:54.132Z,35.92
2018-06-30T01:54:22.836Z,34.98
2018-06-30T01:56:51.485Z,34.78
2018-06-30T01:59:20.335Z,35.88
2018-06-30T02:01:49.111Z,35.48
2018-06-30T02:04:17.798Z,34.83
2018-06-30T02:06:46.591Z,33.88
2018-06-30T02:09:15.615Z,35.13
2018-06-30T02:11:44.611Z,35.25
2018-06-30T02:14:13.536Z,35.78
2018-06-30T02:16:42.384Z,35.13
2018-06-30T02:19:16.203Z,34.93
2018-06-30T02:21:45.155Z,34.43
2018-06-30T02:24:13.783Z,33.67
2018-06-30T02:26:42.579Z,35.68
2018-06-30T02:29:11.459Z,35.20
2018-06-30T02:31:40.187Z,33.83
2018-06-30T02:34:08.931Z,34.60
2018-06-30T02:36:37.712Z,35.15
2018-06-30T02:39:07.752Z,35.20
2018-06-30T02:41:36.392Z,35.40
2018-06-30T02:44:05.315Z,34.47
2018-06-30T02:46:34.246Z,34.92
2018-06-30T02:49:03.052Z,35.20
2018-06-30T02:51:31.923Z,35.08
2018-06-30T02:54:01.106Z,35.92
2018-06-30T02:56:29.935Z,35.68
2018-06-30T02:59:00.059Z,34.97
2018-06-30T03:01:28.869Z,35.53
2018-06-30T03:03:57.672Z,35.33
2018-06-30T03:06:26.371Z,34.92
2018-06-30T03:08:55.192Z,35.48
2018-06-30T03:11:23.858Z,35.92
2018-06-30T03:13:52.774Z,35.35
2018-06-30T03:16:21.568Z,35.52
2018-06-30T03:18:50.411Z,33.83
2018-06-30T03:21:19.113Z,33.30
2018-06-30T03:23:47.838Z,33.98
2018-06-30T03:26:17.630Z,35.00
2018-06-30T03:28:46.291Z,35.05
2018-06-30T03:31:17.346Z,35.05
2018-06-30T03:33:46.134Z,34.75
2018-06-30T03:36:14.810Z,34.43
2018-06-30T03:38:43.544Z,37.35
2018-06-30T03:41:12.192Z,36.05
2018-06-30T03:43:41.240Z,44.17
2018-06-30T03:46:10.005Z,42.27
2018-06-30T03:48:38.658Z,46.23
2018-06-30T03:51:07.450Z,44.55
2018-06-30T03:53:36.310Z,45.63
2018-06-30T03:56:05.091Z,44.10
2018-06-30T03:58:33.986Z,38.08
2018-06-30T04:01:03.309Z,37.35
2018-06-30T04:03:32.113Z,40.30
2018-06-30T04:06:00.835Z,40.50
2018-06-30T04:08:29.608Z,40.58
2018-06-30T04:10:58.326Z,41.10
2018-06-30T04:13:26.976Z,43.50
2018-06-30T04:15:57.198Z,41.53
2018-06-30T04:18:25.999Z,41.28
2018-06-30T04:20:54.794Z,39.53
2018-06-30T04:23:24.621Z,39.18
2018-06-30T04:25:53.381Z,41.28
2018-06-30T04:28:22.134Z,38.95
2018-06-30T04:30:50.947Z,41.50
2018-06-30T04:33:19.691Z,41.13
2018-06-30T04:35:48.534Z,42.05
2018-06-30T04:38:18.868Z,40.20
2018-06-30T04:40:47.682Z,42.13
2018-06-30T04:43:16.470Z,39.83
2018-06-30T04:45:45.245Z,42.60
2018-06-30T04:48:14.069Z,41.30
2018-06-30T04:50:43.106Z,44.88
2018-06-30T04:53:11.769Z,42.60
2018-06-30T04:55:40.680Z,43.93
2018-06-30T04:58:09.603Z,46.65
2018-06-30T05:00:38.372Z,45.60
2018-06-30T05:03:07.172Z,42.88
2018-06-30T05:05:35.985Z,44.50
2018-06-30T05:08:04.730Z,43.13
2018-06-30T05:10:34.888Z,41.83
2018-06-30T05:13:03.644Z,42.30
2018-06-30T05:15:32.443Z,41.92
2018-06-30T05:18:01.412Z,42.55
2018-06-30T05:20:30.090Z,42.38
2018-06-30T05:22:59.122Z,43.45
2018-06-30T05:25:27.937Z,42.27
2018-06-30T05:27:56.631Z,44.13
2018-06-30T05:30:31.333Z,45.70
2018-06-30T05:33:00.479Z,42.43
2018-06-30T05:35:29.307Z,43.28
2018-06-30T05:37:57.995Z,42.47
2018-06-30T05:40:26.658Z,42.25
2018-06-30T05:42:55.430Z,41.30
2018-06-30T05:45:24.271Z,39.53
2018-06-30T05:47:53.292Z,39.60
2018-06-30T05:50:23.331Z,40.08
2018-06-30T05:52:52.032Z,39.30
2018-06-30T05:55:20.835Z,39.78
2018-06-30T05:57:49.494Z,37.70
2018-06-30T06:00:18.330Z,35.80
2018-06-30T06:02:47.109Z,34.20
2018-06-30T06:05:15.927Z,36.48
2018-06-30T06:07:44.606Z,32.20
2018-06-30T06:10:14.480Z,30.23
2018-06-30T06:12:44.362Z,28.65
2018-06-30T06:15:13.325Z,27.52
2018-06-30T06:17:41.923Z,27.35
2018-06-30T06:20:10.816Z,26.85
2018-06-30T06:22:41.183Z,27.67
2018-06-30T06:25:10.052Z,28.23
2018-06-30T06:27:38.791Z,27.03
2018-06-30T06:30:08.140Z,23.15
2018-06-30T06:32:37.282Z,21.23
2018-06-30T06:35:06.384Z,24.05
2018-06-30T06:37:35.113Z,23.30
2018-06-30T06:40:04.010Z,21.67
2018-06-30T06:42:33.002Z,19.70
2018-06-30T06:45:01.646Z,18.23
2018-06-30T06:47:30.856Z,16.30
2018-06-30T06:49:59.767Z,15.75
2018-06-30T06:52:29.342Z,15.05
2018-06-30T06:54:58.234Z,12.13
2018-06-30T06:57:27.004Z,13.65
2018-06-30T06:59:56.578Z,14.80
2018-06-30T07:02:25.415Z,12.40
2018-06-30T07:04:55.016Z,11.03
2018-06-30T07:07:23.886Z,10.82
2018-06-30T07:09:52.743Z,11.15
2018-06-30T07:12:21.562Z,13.18
2018-06-30T07:14:50.654Z,11.80
2018-06-30T07:17:19.605Z,12.47
2018-06-30T07:19:48.826Z,15.32
2018-06-30T07:22:18.820Z,14.45
2018-06-30T07:24:48.183Z,14.33
2018-06-30T07:27:16.936Z,11.75
2018-06-30T07:29:45.929Z,10.08
2018-06-30T07:32:15.246Z,10.15
2018-06-30T07:34:46.601Z,8.80
2018-06-30T07:37:16.046Z,8.53
2018-06-30T07:39:47.235Z,8.27
2018-06-30T07:42:16.061Z,8.37
2018-06-30T07:44:46.452Z,8.08
2018-06-30T07:47:15.258Z,6.58
2018-06-30T07:49:44.008Z,6.80
2018-06-30T07:52:12.949Z,5.45
2018-06-30T07:54:42.064Z,4.95
2018-06-30T07:57:10.793Z,5.97
2018-06-30T07:59:39.479Z,4.90
2018-06-30T08:02:08.321Z,5.30
2018-06-30T08:04:37.223Z,5.45
2018-06-30T08:07:06.054Z,4.75
2018-06-30T08:09:38.845Z,5.15
2018-06-30T08:12:07.603Z,5.33
2018-06-30T08:14:36.452Z,5.23
2018-06-30T08:17:05.278Z,5.00
2018-06-30T08:19:33.988Z,4.80
2018-06-30T08:22:02.715Z,5.05
2018-06-30T08:24:31.438Z,5.53
2018-06-30T08:27:00.563Z,5.33
2018-06-30T08:29:29.315Z,5.40
2018-06-30T08:31:58.107Z,5.90
2018-06-30T08:34:26.869Z,5.83
2018-06-30T08:36:55.844Z,5.67
2018-06-30T08:39:25.378Z,5.50
2018-06-30T08:41:54.152Z,6.97
2018-06-30T08:44:22.966Z,7.67
2018-06-30T08:46:52.105Z,6.92
2018-06-30T08:49:20.870Z,6.45
2018-06-30T08:51:49.708Z,6.97
2018-06-30T08:54:18.756Z,7.20
2018-06-30T08:56:47.636Z,6.83
2018-06-30T08:59:16.731Z,6.80
2018-06-30T09:01:45.844Z,7.03
2018-06-30T09:04:14.687Z,7.42
2018-06-30T09:06:43.898Z,7.40
2018-06-30T09:09:12.956Z,7.78
2018-06-30T09:11:42.270Z,7.57
2018-06-30T09:14:11.840Z,7.28
2018-06-30T09:16:40.908Z,7.30
2018-06-30T09:19:09.639Z,7.78
2018-06-30T09:21:38.492Z,8.55
2018-06-30T09:24:07.215Z,7.50
2018-06-30T09:26:36.030Z,7.90
2018-06-30T09:29:05.249Z,8.08
2018-06-30T09:31:34.052Z,7.80
2018-06-30T09:34:02.843Z,8.00
2018-06-30T09:36:31.518Z,7.97
2018-06-30T09:39:00.201Z,8.23
2018-06-30T09:41:29.091Z,8.18
2018-06-30T09:43:57.986Z,8.40
2018-06-30T09:46:26.701Z,8.05
2018-06-30T09:48:55.467Z,8.10
2018-06-30T09:51:24.286Z,7.70
2018-06-30T09:53:53.244Z,7.53
2018-06-30T09:56:22.057Z,7.20
2018-06-30T09:58:50.871Z,6.80
2018-06-30T10:01:19.714Z,7.00
2018-06-30T10:03:49.457Z,7.20
2018-06-30T10:06:18.088Z,6.73
2018-06-30T10:08:46.860Z,6.87
2018-06-30T10:11:15.660Z,6.97
2018-06-30T10:13:45.280Z,7.10
2018-06-30T10:16:14.022Z,7.33
2018-06-30T10:18:42.796Z,6.93
2018-06-30T10:21:12.105Z,7.03
2018-06-30T10:23:40.942Z,7.28
2018-06-30T10:26:09.712Z,6.77
2018-06-30T10:28:38.464Z,7.00
2018-06-30T10:31:07.212Z,7.80
2018-06-30T10:33:36.223Z,7.05
2018-06-30T10:36:05.149Z,6.60
2018-06-30T10:38:34.151Z,6.70
2018-06-30T10:41:02.971Z,6.47
2018-06-30T10:43:31.775Z,6.65
2018-06-30T10:46:00.676Z,6.30
2018-06-30T10:48:29.488Z,5.42
2018-06-30T10:50:58.226Z,5.95
2018-06-30T10:53:26.984Z,5.50
2018-06-30T10:55:55.697Z,6.40
2018-06-30T10:58:24.431Z,5.72
2018-06-30T11:00:53.805Z,5.87
2018-06-30T11:03:30.811Z,6.10
2018-06-30T11:06:06.777Z,5.62
2018-06-30T11:08:35.745Z,5.70
2018-06-30T11:11:04.565Z,5.90
2018-06-30T11:13:33.122Z,5.70
2018-06-30T11:16:01.999Z,5.78
2018-06-30T11:18:30.726Z,5.85
2018-06-30T11:20:59.465Z,5.90
2018-06-30T11:23:28.192Z,5.23
2018-06-30T11:25:57.029Z,5.70
2018-06-30T11:28:25.806Z,4.60
2018-06-30T11:30:54.495Z,5.10
2018-06-30T11:33:23.442Z,4.70
2018-06-30T11:35:52.279Z,4.37
2018-06-30T11:38:21.001Z,5.12
2018-06-30T11:40:50.268Z,5.17
2018-06-30T11:43:18.871Z,5.20
2018-06-30T11:45:49.698Z,5.27
2018-06-30T11:48:20.976Z,4.60
2018-06-30T11:50:49.701Z,4.00
2018-06-30T11:53:18.476Z,4.00
2018-06-30T11:55:47.160Z,3.83
2018-06-30T11:58:15.933Z,3.97
2018-06-30T12:00:44.735Z,3.60
2018-06-30T12:03:13.599Z,3.70
2018-06-30T12:05:42.587Z,3.10
2018-06-30T12:08:11.327Z,3.10
2018-06-30T12:10:40.382Z,3.40
2018-06-30T12:13:09.116Z,2.75
2018-06-30T12:15:37.817Z,2.77
2018-06-30T12:18:06.754Z,2.70
2018-06-30T12:20:37.431Z,2.77
2018-06-30T12:23:08.524Z,2.50
2018-06-30T12:25:39.476Z,2.73
2018-06-30T12:28:08.384Z,2.60
2018-06-30T12:30:38.314Z,2.97
2018-06-30T12:33:07.052Z,2.60
2018-06-30T12:35:37.063Z,2.37
2018-06-30T12:38:05.962Z,2.40
2018-06-30T12:40:34.646Z,2.62
2018-06-30T12:43:03.729Z,2.17
2018-06-30T12:45:32.746Z,3.47
2018-06-30T12:48:01.795Z,2.10
2018-06-30T12:50:30.555Z,2.80
2018-06-30T12:52:59.568Z,2.30
2018-06-30T12:55:30.249Z,1.80
2018-06-30T12:57:58.944Z,2.30
2018-06-30T13:00:29.155Z,2.00
2018-06-30T13:02:57.815Z,2.35
2018-06-30T13:05:27.702Z,1.60
2018-06-30T13:07:56.532Z,1.85
2018-06-30T13:10:25.654Z,2.30
2018-06-30T13:12:54.354Z,1.50
2018-06-30T13:15:23.103Z,1.65
2018-06-30T13:17:53.454Z,1.40
2018-06-30T13:20:22.175Z,1.20
2018-06-30T13:22:50.970Z,1.27
2018-06-30T13:25:19.758Z,1.50
2018-06-30T13:27:48.497Z,1.40
2018-06-30T13:30:19.327Z,1.25
2018-06-30T13:32:48.079Z,1.17
2018-06-30T13:35:18.396Z,1.20
2018-06-30T13:37:47.063Z,1.37
2018-06-30T13:40:15.885Z,1.35
2018-06-30T13:42:44.752Z,1.40
2018-06-30T13:45:13.712Z,1.30
2018-06-30T13:47:42.760Z,1.50
2018-06-30T13:50:12.424Z,1.50
2018-06-30T13:52:41.296Z,1.25
2018-06-30T13:55:10.176Z,1.12
2018-06-30T13:57:40.342Z,1.07
2018-06-30T14:00:09.102Z,1.05
2018-06-30T14:02:37.870Z,1.10
2018-06-30T14:05:06.933Z,1.00
2018-06-30T14:07:36.050Z,1.22
2018-06-30T14:10:05.988Z,1.45
2018-06-30T14:12:34.828Z,1.20
2018-06-30T14:15:04.598Z,1.00
2018-06-30T14:17:33.329Z,1.10
2018-06-30T14:20:02.081Z,1.10
2018-06-30T14:22:30.761Z,1.20
2018-06-30T14:24:59.484Z,1.20
2018-06-30T14:27:28.284Z,0.98
2018-06-30T14:29:57.082Z,1.05
2018-06-30T14:32:25.890Z,1.30
2018-06-30T14:34:54.817Z,1.00
2018-06-30T14:37:23.628Z,1.00
2018-06-30T14:39:52.514Z,1.00
2018-06-30T14:42:22.411Z,1.20
2018-06-30T14:44:51.154Z,0.90
2018-06-30T14:47:23.825Z,1.12
2018-06-30T14:49:55.718Z,0.90
2018-06-30T14:52:24.523Z,0.80
2018-06-30T14:54:53.727Z,0.93
2018-06-30T14:57:22.420Z,1.00
2018-06-30T14:59:51.191Z,0.90
2018-06-30T15:02:20.024Z,1.12
2018-06-30T15:04:48.802Z,1.42
2018-06-30T15:07:17.442Z,0.90
2018-06-30T15:09:46.169Z,1.15
2018-06-30T15:12:15.101Z,1.00
2018-06-30T15:14:43.863Z,1.05
2018-06-30T15:17:12.646Z,3.75
2018-06-30T15:19:41.745Z,0.90
2018-06-30T15:22:10.662Z,1.20
2018-06-30T15:24:39.555Z,1.10
2018-06-30T15:27:08.232Z,0.88
2018-06-30T15:29:37.063Z,1.32
2018-06-30T15:32:08.459Z,0.80
2018-06-30T15:34:37.203Z,1.00
2018-06-30T15:37:06.042Z,1.13
2018-06-30T15:39:34.909Z,1.30
2018-06-30T15:42:05.255Z,1.00
2018-06-30T15:44:34.506Z,0.90
2018-06-30T15:47:03.276Z,1.30
2018-06-30T15:49:32.073Z,1.27
2018-06-30T15:52:02.394Z,1.10
2018-06-30T15:54:31.225Z,1.13
2018-06-30T15:57:01.047Z,1.20
2018-06-30T15:59:34.304Z,1.10
2018-06-30T16:02:08.604Z,0.90
2018-06-30T16:04:37.493Z,2.02
2018-06-30T16:07:06.290Z,1.72
2018-06-30T16:09:34.905Z,1.40
2018-06-30T16:12:03.716Z,1.10
2018-06-30T16:14:32.664Z,0.90
2018-06-30T16:17:01.554Z,1.17
2018-06-30T16:19:30.235Z,1.47
2018-06-30T16:21:59.036Z,1.70
2018-06-30T16:24:29.221Z,1.27
2018-06-30T16:26:58.003Z,1.20
2018-06-30T16:29:26.784Z,1.10
2018-06-30T16:31:55.530Z,1.70
2018-06-30T16:34:24.382Z,1.50
2018-06-30T16:36:53.101Z,1.60
2018-06-30T16:39:21.899Z,1.20
2018-06-30T16:41:50.606Z,1.45
2018-06-30T16:44:19.494Z,1.30
2018-06-30T16:46:48.202Z,1.30
2018-06-30T16:49:17.294Z,1.30
2018-06-30T16:51:45.986Z,1.30
2018-06-30T16:54:15.783Z,1.20
2018-06-30T16:56:44.490Z,1.30
2018-06-30T16:59:13.209Z,1.30
2018-06-30T17:01:41.918Z,1.22
2018-06-30T17:04:10.704Z,1.50
2018-06-30T17:06:39.538Z,1.20
2018-06-30T17:09:11.842Z,1.60
2018-06-30T17:11:40.577Z,1.50
2018-06-30T17:14:09.303Z,1.25
2018-06-30T17:16:38.255Z,1.30
2018-06-30T17:19:07.178Z,1.15
2018-06-30T17:21:36.679Z,1.60
2018-06-30T17:24:07.720Z,1.87
2018-06-30T17:26:36.405Z,1.65
2018-06-30T17:29:05.180Z,1.90
2018-06-30T17:31:34.085Z,1.30
2018-06-30T17:34:02.806Z,3.20
2018-06-30T17:36:32.518Z,1.32
2018-06-30T17:39:01.261Z,1.00
2018-06-30T17:41:30.102Z,1.52
2018-06-30T17:43:58.944Z,1.70
2018-06-30T17:46:27.846Z,1.10
2018-06-30T17:48:56.538Z,1.80
2018-06-30T17:51:25.194Z,1.65
2018-06-30T17:53:55.116Z,1.53
2018-06-30T17:56:24.630Z,2.05
2018-06-30T17:58:53.512Z,1.43
2018-06-30T18:01:22.413Z,1.47
2018-06-30T18:03:51.094Z,1.67
2018-06-30T18:06:19.981Z,1.50
2018-06-30T18:08:48.825Z,1.40
2018-06-30T18:11:17.577Z,1.20
2018-06-30T18:13:46.932Z,1.40
2018-06-30T18:16:17.593Z,1.90
2018-06-30T18:18:46.497Z,1.52
2018-06-30T18:21:15.303Z,1.27
2018-06-30T18:23:44.353Z,2.30
2018-06-30T18:26:13.167Z,1.75
2018-06-30T18:28:42.008Z,1.50
2018-06-30T18:31:11.649Z,1.40
2018-06-30T18:33:40.502Z,1.40
2018-06-30T18:36:09.292Z,1.40
2018-06-30T18:38:38.121Z,1.67
2018-06-30T18:41:06.948Z,1.47
2018-06-30T18:43:35.735Z,1.85
2018-06-30T18:46:04.624Z,1.90
2018-06-30T18:48:34.083Z,1.65
2018-06-30T18:51:02.766Z,1.60
2018-06-30T18:53:31.545Z,1.32
2018-06-30T18:56:00.940Z,1.83
2018-06-30T18:58:29.770Z,1.40
2018-06-30T19:00:58.720Z,2.08
2018-06-30T19:03:27.473Z,1.90
2018-06-30T19:05:56.263Z,1.90
2018-06-30T19:08:25.042Z,2.20
2018-06-30T19:10:54.418Z,2.08
2018-06-30T19:13:23.083Z,2.12
2018-06-30T19:15:51.887Z,2.05
2018-06-30T19:18:20.542Z,1.70
2018-06-30T19:20:49.192Z,1.60
2018-06-30T19:23:17.826Z,1.77
2018-06-30T19:25:46.624Z,1.80
2018-06-30T19:28:22.151Z,1.50
2018-06-30T19:30:55.746Z,1.72
2018-06-30T19:33:28.908Z,1.90
2018-06-30T19:35:57.751Z,1.60
2018-06-30T19:38:26.444Z,2.17
2018-06-30T19:40:55.134Z,2.12
2018-06-30T19:43:23.974Z,1.87
2018-06-30T19:45:52.861Z,1.82
2018-06-30T19:48:21.605Z,2.25
2018-06-30T19:50:50.306Z,1.80
2018-06-30T19:53:19.222Z,2.00
2018-06-30T19:55:47.915Z,1.80
2018-06-30T19:58:16.799Z,1.80
2018-06-30T20:00:45.525Z,2.00
2018-06-30T20:03:14.160Z,1.90
2018-06-30T20:05:42.932Z,2.53
2018-06-30T20:08:11.606Z,2.65
2018-06-30T20:10:40.280Z,2.72
2018-06-30T20:13:09.056Z,2.08
2018-06-30T20:15:37.723Z,1.70
2018-06-30T20:18:06.548Z,1.57
2018-06-30T20:20:35.338Z,1.60
2018-06-30T20:23:04.199Z,1.60
2018-06-30T20:25:32.875Z,1.82
2018-06-30T20:28:01.756Z,1.80
2018-06-30T20:30:30.669Z,1.80
2018-06-30T20:32:59.461Z,1.50
2018-06-30T20:35:30.213Z,1.50
2018-06-30T20:37:59.069Z,2.42
2018-06-30T20:40:27.759Z,1.80
2018-06-30T20:42:56.380Z,2.10
2018-06-30T20:45:25.381Z,2.05
2018-06-30T20:47:54.078Z,2.80
2018-06-30T20:50:26.372Z,1.60
2018-06-30T20:52:55.126Z,1.47
2018-06-30T20:55:24.072Z,1.75
2018-06-30T20:57:53.007Z,2.45
2018-06-30T21:00:21.757Z,1.80
2018-06-30T21:02:50.404Z,2.10
2018-06-30T21:05:19.084Z,2.02
2018-06-30T21:07:48.097Z,2.23
2018-06-30T21:10:16.839Z,1.70
2018-06-30T21:12:45.929Z,2.77
2018-06-30T21:15:14.770Z,4.50
2018-06-30T21:17:43.684Z,1.98
2018-06-30T21:20:12.531Z,2.10
2018-06-30T21:22:41.397Z,1.82
2018-06-30T21:25:10.074Z,1.70
2018-06-30T21:27:38.826Z,1.95
2018-06-30T21:30:07.558Z,2.42
2018-06-30T21:32:36.235Z,2.10
2018-06-30T21:35:05.032Z,2.50
2018-06-30T21:37:34.028Z,2.72
2018-06-30T21:40:02.787Z,2.60
2018-06-30T21:42:31.524Z,2.90
2018-06-30T21:45:00.359Z,2.85
2018-06-30T21:47:29.474Z,3.15
2018-06-30T21:49:58.420Z,3.15
2018-06-30T21:52:27.205Z,3.20
2018-06-30T21:54:56.059Z,3.10
2018-06-30T21:57:25.886Z,2.65
2018-06-30T21:59:54.753Z,3.43
2018-06-30T22:02:25.238Z,2.80
2018-06-30T22:04:55.809Z,14.87
2018-06-30T22:07:24.684Z,2.60
2018-06-30T22:09:57.706Z,2.30
2018-06-30T22:12:26.446Z,2.33
2018-06-30T22:14:55.152Z,2.30
2018-06-30T22:17:24.223Z,3.27
2018-06-30T22:19:53.959Z,2.50
2018-06-30T22:22:23.047Z,2.00
2018-06-30T22:24:51.981Z,2.00
2018-06-30T22:27:22.111Z,2.17
2018-06-30T22:29:50.907Z,2.20
2018-06-30T22:32:19.654Z,2.25
2018-06-30T22:34:48.386Z,2.00
2018-06-30T22:37:17.034Z,2.52
2018-06-30T22:39:56.788Z,1.82
2018-06-30T22:42:25.538Z,2.25
2018-06-30T22:44:54.299Z,1.80
2018-06-30T22:47:22.979Z,1.83
2018-06-30T22:49:51.709Z,1.70
2018-06-30T22:52:21.718Z,1.80
2018-06-30T22:54:50.455Z,1.75
2018-06-30T22:57:19.302Z,2.20
2018-06-30T22:59:47.985Z,2.00
2018-06-30T23:02:16.759Z,2.80
2018-06-30T23:04:47.913Z,2.10
2018-06-30T23:07:16.659Z,1.77
2018-06-30T23:09:45.509Z,1.62
2018-06-30T23:12:14.236Z,1.52
2018-06-30T23:14:43.128Z,1.90
2018-06-30T23:17:11.802Z,1.60
2018-06-30T23:19:40.901Z,1.90
2018-06-30T23:22:09.664Z,2.35
2018-06-30T23:24:40.833Z,1.70
2018-06-30T23:27:09.652Z,1.90
2018-06-30T23:29:38.497Z,1.75
2018-06-30T23:32:07.368Z,2.00
2018-06-30T23:34:36.412Z,2.00
2018-06-30T23:37:05.774Z,1.80
2018-06-30T23:39:34.620Z,1.90
2018-06-30T23:42:03.373Z,2.40
2018-06-30T23:44:32.105Z,2.07
2018-06-30T23:47:00.675Z,1.75
2018-06-30T23:49:29.423Z,1.52
2018-06-30T23:51:58.037Z,2.42
2018-06-30T23:54:26.705Z,1.50
2018-06-30T23:56:56.562Z,1.60
2018-06-30T23:59:25.353Z,1.30
